sensor_id;sensor_type;location;lat;lon;timestamp;P1;durP1;ratioP1;P2;durP2;ratioP2
39426;SDS011;25938;48.470;1.486;2023-05-07T00:01:48;0.43;;;0.10;;
39426;SDS011;25938;48.470;1.486;2023-05-07T00:04:14;1.13;;;0.20;;
39426;SDS011;25938;48.470;1.486;2023-05-07T00:06:40;0.57;;;0.35;;
39426;SDS011;25938;48.470;1.486;2023-05-07T00:09:06;1.65;;;0.22;;
39426;SDS011;25938;48.470;1.486;2023-05-07T00:11:32;1.27;;;0.30;;
39426;SDS011;25938;48.470;1.486;2023-05-07T00:16:53;0.63;;;0.20;;
39426;SDS011;25938;48.470;1.486;2023-05-07T00:19:19;0.32;;;0.10;;
39426;SDS011;25938;48.470;1.486;2023-05-07T00:21:45;1.70;;;0.10;;
39426;SDS011;25938;48.470;1.486;2023-05-07T00:24:11;0.98;;;0.20;;
39426;SDS011;25938;48.470;1.486;2023-05-07T00:26:37;0.52;;;0.20;;
39426;SDS011;25938;48.470;1.486;2023-05-07T00:29:03;1.00;;;0.15;;
39426;SDS011;25938;48.470;1.486;2023-05-07T00:31:29;0.70;;;0.20;;
39426;SDS011;25938;48.470;1.486;2023-05-07T00:33:55;1.35;;;0.10;;
39426;SDS011;25938;48.470;1.486;2023-05-07T00:36:21;0.70;;;0.20;;
39426;SDS011;25938;48.470;1.486;2023-05-07T00:38:47;0.45;;;0.25;;
39426;SDS011;25938;48.470;1.486;2023-05-07T00:41:15;1.13;;;0.10;;
39426;SDS011;25938;48.470;1.486;2023-05-07T00:43:41;0.38;;;0.10;;
39426;SDS011;25938;48.470;1.486;2023-05-07T00:46:07;0.65;;;0.15;;
39426;SDS011;25938;48.470;1.486;2023-05-07T00:48:33;0.32;;;0.15;;
39426;SDS011;25938;48.470;1.486;2023-05-07T00:50:59;0.75;;;0.45;;
39426;SDS011;25938;48.470;1.486;2023-05-07T00:53:25;1.05;;;0.28;;
39426;SDS011;25938;48.470;1.486;2023-05-07T00:55:51;4.03;;;0.40;;
39426;SDS011;25938;48.470;1.486;2023-05-07T00:58:17;1.23;;;0.20;;
39426;SDS011;25938;48.470;1.486;2023-05-07T01:00:43;0.90;;;0.20;;
39426;SDS011;25938;48.470;1.486;2023-05-07T01:03:10;2.35;;;0.20;;
39426;SDS011;25938;48.470;1.486;2023-05-07T01:05:36;0.82;;;0.20;;
39426;SDS011;25938;48.470;1.486;2023-05-07T01:08:02;1.00;;;0.10;;
39426;SDS011;25938;48.470;1.486;2023-05-07T01:10:28;0.82;;;0.10;;
39426;SDS011;25938;48.470;1.486;2023-05-07T01:12:55;1.17;;;0.40;;
39426;SDS011;25938;48.470;1.486;2023-05-07T01:15:22;1.90;;;0.15;;
39426;SDS011;25938;48.470;1.486;2023-05-07T01:17:48;1.80;;;0.40;;
39426;SDS011;25938;48.470;1.486;2023-05-07T01:20:14;1.00;;;0.38;;
39426;SDS011;25938;48.470;1.486;2023-05-07T01:22:40;1.20;;;0.30;;
39426;SDS011;25938;48.470;1.486;2023-05-07T01:25:07;1.35;;;0.20;;
39426;SDS011;25938;48.470;1.486;2023-05-07T01:27:33;1.55;;;0.20;;
39426;SDS011;25938;48.470;1.486;2023-05-07T01:30:00;0.77;;;0.40;;
39426;SDS011;25938;48.470;1.486;2023-05-07T01:32:38;0.88;;;0.10;;
39426;SDS011;25938;48.470;1.486;2023-05-07T01:35:07;1.30;;;0.30;;
39426;SDS011;25938;48.470;1.486;2023-05-07T01:37:35;1.80;;;0.25;;
39426;SDS011;25938;48.470;1.486;2023-05-07T01:40:01;0.30;;;0.20;;
39426;SDS011;25938;48.470;1.486;2023-05-07T01:42:28;0.75;;;0.20;;
39426;SDS011;25938;48.470;1.486;2023-05-07T01:44:55;0.88;;;0.20;;
39426;SDS011;25938;48.470;1.486;2023-05-07T01:47:21;0.63;;;0.03;;
39426;SDS011;25938;48.470;1.486;2023-05-07T01:49:48;1.27;;;0.15;;
39426;SDS011;25938;48.470;1.486;2023-05-07T01:52:14;0.85;;;0.30;;
39426;SDS011;25938;48.470;1.486;2023-05-07T01:54:40;0.60;;;0.20;;
39426;SDS011;25938;48.470;1.486;2023-05-07T01:57:06;0.50;;;0.10;;
39426;SDS011;25938;48.470;1.486;2023-05-07T01:59:32;3.22;;;1.10;;
39426;SDS011;25938;48.470;1.486;2023-05-07T02:01:58;1.38;;;0.38;;
39426;SDS011;25938;48.470;1.486;2023-05-07T02:04:24;1.08;;;0.22;;
39426;SDS011;25938;48.470;1.486;2023-05-07T02:06:50;0.40;;;0.32;;
39426;SDS011;25938;48.470;1.486;2023-05-07T02:09:17;2.33;;;0.40;;
39426;SDS011;25938;48.470;1.486;2023-05-07T02:11:44;2.75;;;0.20;;
39426;SDS011;25938;48.470;1.486;2023-05-07T02:14:10;0.88;;;0.20;;
39426;SDS011;25938;48.470;1.486;2023-05-07T02:16:36;0.30;;;0.10;;
39426;SDS011;25938;48.470;1.486;2023-05-07T02:19:02;2.97;;;0.40;;
39426;SDS011;25938;48.470;1.486;2023-05-07T02:21:28;1.00;;;0.20;;
39426;SDS011;25938;48.470;1.486;2023-05-07T02:23:54;0.57;;;0.20;;
39426;SDS011;25938;48.470;1.486;2023-05-07T02:26:20;1.00;;;0.30;;
39426;SDS011;25938;48.470;1.486;2023-05-07T02:28:46;0.98;;;0.17;;
39426;SDS011;25938;48.470;1.486;2023-05-07T02:31:12;1.77;;;0.20;;
39426;SDS011;25938;48.470;1.486;2023-05-07T02:33:38;0.88;;;0.10;;
39426;SDS011;25938;48.470;1.486;2023-05-07T02:36:05;1.15;;;0.30;;
39426;SDS011;25938;48.470;1.486;2023-05-07T02:38:31;0.10;;;0.10;;
39426;SDS011;25938;48.470;1.486;2023-05-07T02:40:57;0.30;;;0.20;;
39426;SDS011;25938;48.470;1.486;2023-05-07T02:43:23;1.55;;;0.30;;
39426;SDS011;25938;48.470;1.486;2023-05-07T02:45:50;1.30;;;0.25;;
39426;SDS011;25938;48.470;1.486;2023-05-07T02:48:25;1.08;;;0.20;;
39426;SDS011;25938;48.470;1.486;2023-05-07T02:50:51;4.07;;;1.48;;
39426;SDS011;25938;48.470;1.486;2023-05-07T02:53:17;0.80;;;0.10;;
39426;SDS011;25938;48.470;1.486;2023-05-07T02:55:43;0.75;;;0.30;;
39426;SDS011;25938;48.470;1.486;2023-05-07T02:58:09;3.67;;;0.50;;
39426;SDS011;25938;48.470;1.486;2023-05-07T03:00:35;0.40;;;0.30;;
39426;SDS011;25938;48.470;1.486;2023-05-07T03:03:01;0.47;;;0.10;;
39426;SDS011;25938;48.470;1.486;2023-05-07T03:05:27;2.70;;;0.40;;
39426;SDS011;25938;48.470;1.486;2023-05-07T03:07:53;0.95;;;0.40;;
39426;SDS011;25938;48.470;1.486;2023-05-07T03:10:19;0.32;;;0.30;;
39426;SDS011;25938;48.470;1.486;2023-05-07T03:12:45;1.08;;;0.45;;
39426;SDS011;25938;48.470;1.486;2023-05-07T03:15:11;4.13;;;0.40;;
39426;SDS011;25938;48.470;1.486;2023-05-07T03:17:37;0.82;;;0.20;;
39426;SDS011;25938;48.470;1.486;2023-05-07T03:20:04;0.65;;;0.30;;
39426;SDS011;25938;48.470;1.486;2023-05-07T03:22:30;0.63;;;0.20;;
39426;SDS011;25938;48.470;1.486;2023-05-07T03:24:56;1.88;;;0.40;;
39426;SDS011;25938;48.470;1.486;2023-05-07T03:27:22;0.60;;;0.20;;
39426;SDS011;25938;48.470;1.486;2023-05-07T03:29:48;2.78;;;0.30;;
39426;SDS011;25938;48.470;1.486;2023-05-07T03:32:14;1.38;;;0.20;;
39426;SDS011;25938;48.470;1.486;2023-05-07T03:34:40;0.65;;;0.30;;
39426;SDS011;25938;48.470;1.486;2023-05-07T03:37:06;0.30;;;0.15;;
39426;SDS011;25938;48.470;1.486;2023-05-07T03:39:32;0.43;;;0.10;;
39426;SDS011;25938;48.470;1.486;2023-05-07T03:41:58;0.55;;;0.30;;
39426;SDS011;25938;48.470;1.486;2023-05-07T03:44:24;2.35;;;0.30;;
39426;SDS011;25938;48.470;1.486;2023-05-07T03:46:50;0.40;;;0.10;;
39426;SDS011;25938;48.470;1.486;2023-05-07T03:49:16;1.80;;;0.82;;
39426;SDS011;25938;48.470;1.486;2023-05-07T03:51:42;0.63;;;0.20;;
39426;SDS011;25938;48.470;1.486;2023-05-07T03:54:08;2.35;;;0.40;;
39426;SDS011;25938;48.470;1.486;2023-05-07T03:56:34;1.17;;;0.40;;
39426;SDS011;25938;48.470;1.486;2023-05-07T03:59:00;0.45;;;0.40;;
39426;SDS011;25938;48.470;1.486;2023-05-07T04:01:26;1.08;;;0.40;;
39426;SDS011;25938;48.470;1.486;2023-05-07T04:03:52;10.75;;;1.20;;
39426;SDS011;25938;48.470;1.486;2023-05-07T04:06:18;0.40;;;0.30;;
39426;SDS011;25938;48.470;1.486;2023-05-07T04:08:44;0.75;;;0.30;;
39426;SDS011;25938;48.470;1.486;2023-05-07T04:11:10;1.20;;;0.32;;
39426;SDS011;25938;48.470;1.486;2023-05-07T04:13:38;0.73;;;0.40;;
39426;SDS011;25938;48.470;1.486;2023-05-07T04:16:05;1.05;;;0.20;;
39426;SDS011;25938;48.470;1.486;2023-05-07T04:18:31;3.80;;;0.52;;
39426;SDS011;25938;48.470;1.486;2023-05-07T04:20:57;0.40;;;0.38;;
39426;SDS011;25938;48.470;1.486;2023-05-07T04:23:23;0.98;;;0.40;;
39426;SDS011;25938;48.470;1.486;2023-05-07T04:25:49;1.73;;;0.60;;
39426;SDS011;25938;48.470;1.486;2023-05-07T04:28:16;1.90;;;0.77;;
39426;SDS011;25938;48.470;1.486;2023-05-07T04:30:42;2.47;;;0.30;;
39426;SDS011;25938;48.470;1.486;2023-05-07T04:33:08;0.35;;;0.35;;
39426;SDS011;25938;48.470;1.486;2023-05-07T04:35:34;2.08;;;0.60;;
39426;SDS011;25938;48.470;1.486;2023-05-07T04:38:00;0.93;;;0.40;;
39426;SDS011;25938;48.470;1.486;2023-05-07T04:40:26;1.50;;;0.40;;
39426;SDS011;25938;48.470;1.486;2023-05-07T04:42:52;1.52;;;0.52;;
39426;SDS011;25938;48.470;1.486;2023-05-07T04:45:18;0.93;;;0.63;;
39426;SDS011;25938;48.470;1.486;2023-05-07T04:47:45;0.65;;;0.50;;
39426;SDS011;25938;48.470;1.486;2023-05-07T04:50:10;1.13;;;0.35;;
39426;SDS011;25938;48.470;1.486;2023-05-07T04:52:37;1.50;;;0.38;;
39426;SDS011;25938;48.470;1.486;2023-05-07T04:55:03;2.05;;;0.50;;
39426;SDS011;25938;48.470;1.486;2023-05-07T04:57:29;0.45;;;0.45;;
39426;SDS011;25938;48.470;1.486;2023-05-07T04:59:55;1.10;;;0.30;;
39426;SDS011;25938;48.470;1.486;2023-05-07T05:02:21;1.23;;;0.57;;
39426;SDS011;25938;48.470;1.486;2023-05-07T05:04:47;0.22;;;0.22;;
39426;SDS011;25938;48.470;1.486;2023-05-07T05:07:13;0.82;;;0.68;;
39426;SDS011;25938;48.470;1.486;2023-05-07T05:09:39;1.67;;;0.60;;
39426;SDS011;25938;48.470;1.486;2023-05-07T05:12:05;0.65;;;0.38;;
39426;SDS011;25938;48.470;1.486;2023-05-07T05:14:32;5.97;;;0.95;;
39426;SDS011;25938;48.470;1.486;2023-05-07T05:16:58;2.28;;;0.57;;
39426;SDS011;25938;48.470;1.486;2023-05-07T05:19:24;1.33;;;1.08;;
39426;SDS011;25938;48.470;1.486;2023-05-07T05:21:50;1.88;;;0.70;;
39426;SDS011;25938;48.470;1.486;2023-05-07T05:24:16;0.73;;;0.40;;
39426;SDS011;25938;48.470;1.486;2023-05-07T05:26:42;1.73;;;1.63;;
39426;SDS011;25938;48.470;1.486;2023-05-07T05:29:08;0.85;;;0.50;;
39426;SDS011;25938;48.470;1.486;2023-05-07T05:31:35;0.70;;;0.47;;
39426;SDS011;25938;48.470;1.486;2023-05-07T05:34:01;1.25;;;0.50;;
39426;SDS011;25938;48.470;1.486;2023-05-07T05:36:28;1.42;;;0.57;;
39426;SDS011;25938;48.470;1.486;2023-05-07T05:38:55;0.70;;;0.57;;
39426;SDS011;25938;48.470;1.486;2023-05-07T05:41:21;1.40;;;0.60;;
39426;SDS011;25938;48.470;1.486;2023-05-07T05:43:48;1.63;;;0.70;;
39426;SDS011;25938;48.470;1.486;2023-05-07T05:46:14;0.90;;;0.70;;
39426;SDS011;25938;48.470;1.486;2023-05-07T05:48:40;1.50;;;0.88;;
39426;SDS011;25938;48.470;1.486;2023-05-07T05:51:06;1.65;;;0.80;;
39426;SDS011;25938;48.470;1.486;2023-05-07T05:53:49;4.40;;;0.65;;
39426;SDS011;25938;48.470;1.486;2023-05-07T05:56:15;0.50;;;0.40;;
39426;SDS011;25938;48.470;1.486;2023-05-07T05:58:41;1.58;;;1.05;;
39426;SDS011;25938;48.470;1.486;2023-05-07T06:01:07;1.17;;;0.93;;
39426;SDS011;25938;48.470;1.486;2023-05-07T06:03:33;2.60;;;0.90;;
39426;SDS011;25938;48.470;1.486;2023-05-07T06:05:59;3.45;;;1.00;;
39426;SDS011;25938;48.470;1.486;2023-05-07T06:08:29;2.10;;;1.00;;
39426;SDS011;25938;48.470;1.486;2023-05-07T06:10:55;3.63;;;1.48;;
39426;SDS011;25938;48.470;1.486;2023-05-07T06:13:22;1.08;;;0.90;;
39426;SDS011;25938;48.470;1.486;2023-05-07T06:15:48;2.63;;;2.08;;
39426;SDS011;25938;48.470;1.486;2023-05-07T06:18:14;2.00;;;1.00;;
39426;SDS011;25938;48.470;1.486;2023-05-07T06:20:40;3.85;;;0.90;;
39426;SDS011;25938;48.470;1.486;2023-05-07T06:23:06;2.85;;;1.40;;
39426;SDS011;25938;48.470;1.486;2023-05-07T06:25:32;4.65;;;1.52;;
39426;SDS011;25938;48.470;1.486;2023-05-07T06:27:58;1.75;;;1.50;;
39426;SDS011;25938;48.470;1.486;2023-05-07T06:30:24;2.13;;;1.48;;
39426;SDS011;25938;48.470;1.486;2023-05-07T06:32:51;3.40;;;1.10;;
39426;SDS011;25938;48.470;1.486;2023-05-07T06:35:17;3.00;;;1.33;;
39426;SDS011;25938;48.470;1.486;2023-05-07T06:37:44;3.08;;;1.40;;
39426;SDS011;25938;48.470;1.486;2023-05-07T06:40:10;2.63;;;1.30;;
39426;SDS011;25938;48.470;1.486;2023-05-07T06:42:36;3.90;;;1.67;;
39426;SDS011;25938;48.470;1.486;2023-05-07T06:45:03;5.57;;;1.52;;
39426;SDS011;25938;48.470;1.486;2023-05-07T06:47:29;1.58;;;1.42;;
39426;SDS011;25938;48.470;1.486;2023-05-07T06:49:55;2.55;;;1.80;;
39426;SDS011;25938;48.470;1.486;2023-05-07T06:52:21;2.28;;;1.40;;
39426;SDS011;25938;48.470;1.486;2023-05-07T06:54:47;4.00;;;2.35;;
39426;SDS011;25938;48.470;1.486;2023-05-07T06:57:13;4.15;;;2.05;;
39426;SDS011;25938;48.470;1.486;2023-05-07T06:59:39;2.47;;;1.88;;
39426;SDS011;25938;48.470;1.486;2023-05-07T07:02:05;3.58;;;1.98;;
39426;SDS011;25938;48.470;1.486;2023-05-07T07:04:31;2.72;;;2.00;;
39426;SDS011;25938;48.470;1.486;2023-05-07T07:06:57;4.00;;;2.03;;
39426;SDS011;25938;48.470;1.486;2023-05-07T07:09:23;3.63;;;2.47;;
39426;SDS011;25938;48.470;1.486;2023-05-07T07:11:49;4.20;;;2.25;;
39426;SDS011;25938;48.470;1.486;2023-05-07T07:14:15;3.03;;;1.85;;
39426;SDS011;25938;48.470;1.486;2023-05-07T07:16:41;3.85;;;1.85;;
39426;SDS011;25938;48.470;1.486;2023-05-07T07:19:07;2.58;;;1.77;;
39426;SDS011;25938;48.470;1.486;2023-05-07T07:21:33;1.88;;;1.73;;
39426;SDS011;25938;48.470;1.486;2023-05-07T07:23:59;2.85;;;2.00;;
39426;SDS011;25938;48.470;1.486;2023-05-07T07:26:25;3.08;;;1.85;;
39426;SDS011;25938;48.470;1.486;2023-05-07T07:28:51;3.65;;;2.30;;
39426;SDS011;25938;48.470;1.486;2023-05-07T07:31:18;2.55;;;1.63;;
39426;SDS011;25938;48.470;1.486;2023-05-07T07:33:43;3.47;;;1.92;;
39426;SDS011;25938;48.470;1.486;2023-05-07T07:36:09;3.15;;;2.00;;
39426;SDS011;25938;48.470;1.486;2023-05-07T07:38:35;1.63;;;1.52;;
39426;SDS011;25938;48.470;1.486;2023-05-07T07:41:02;2.33;;;1.35;;
39426;SDS011;25938;48.470;1.486;2023-05-07T07:43:28;2.88;;;1.92;;
39426;SDS011;25938;48.470;1.486;2023-05-07T07:45:54;4.35;;;1.88;;
39426;SDS011;25938;48.470;1.486;2023-05-07T07:48:20;1.80;;;1.58;;
39426;SDS011;25938;48.470;1.486;2023-05-07T07:50:48;2.00;;;1.42;;
39426;SDS011;25938;48.470;1.486;2023-05-07T07:53:15;2.22;;;1.38;;
39426;SDS011;25938;48.470;1.486;2023-05-07T07:55:41;1.17;;;1.08;;
39426;SDS011;25938;48.470;1.486;2023-05-07T07:58:07;1.65;;;1.17;;
39426;SDS011;25938;48.470;1.486;2023-05-07T08:00:33;1.63;;;1.17;;
39426;SDS011;25938;48.470;1.486;2023-05-07T08:02:59;2.85;;;2.65;;
39426;SDS011;25938;48.470;1.486;2023-05-07T08:05:25;1.63;;;0.90;;
39426;SDS011;25938;48.470;1.486;2023-05-07T08:07:51;2.72;;;1.05;;
39426;SDS011;25938;48.470;1.486;2023-05-07T08:10:18;1.08;;;0.90;;
39426;SDS011;25938;48.470;1.486;2023-05-07T08:12:48;1.60;;;0.88;;
39426;SDS011;25938;48.470;1.486;2023-05-07T08:15:14;0.70;;;0.38;;
39426;SDS011;25938;48.470;1.486;2023-05-07T08:17:40;0.50;;;0.50;;
39426;SDS011;25938;48.470;1.486;2023-05-07T08:20:06;0.80;;;0.80;;
39426;SDS011;25938;48.470;1.486;2023-05-07T08:22:32;1.73;;;0.80;;
39426;SDS011;25938;48.470;1.486;2023-05-07T08:24:58;1.95;;;1.15;;
39426;SDS011;25938;48.470;1.486;2023-05-07T08:27:25;0.40;;;0.40;;
39426;SDS011;25938;48.470;1.486;2023-05-07T08:29:51;0.60;;;0.43;;
39426;SDS011;25938;48.470;1.486;2023-05-07T08:32:17;1.58;;;0.70;;
39426;SDS011;25938;48.470;1.486;2023-05-07T08:34:43;0.63;;;0.60;;
39426;SDS011;25938;48.470;1.486;2023-05-07T08:37:09;0.30;;;0.30;;
39426;SDS011;25938;48.470;1.486;2023-05-07T08:39:35;1.20;;;0.57;;
39426;SDS011;25938;48.470;1.486;2023-05-07T08:42:01;0.82;;;0.35;;
39426;SDS011;25938;48.470;1.486;2023-05-07T08:44:28;1.23;;;0.60;;
39426;SDS011;25938;48.470;1.486;2023-05-07T08:46:58;0.40;;;0.40;;
39426;SDS011;25938;48.470;1.486;2023-05-07T08:49:27;0.40;;;0.40;;
39426;SDS011;25938;48.470;1.486;2023-05-07T08:51:53;1.10;;;0.85;;
39426;SDS011;25938;48.470;1.486;2023-05-07T08:54:20;0.90;;;0.50;;
39426;SDS011;25938;48.470;1.486;2023-05-07T08:56:46;0.82;;;0.55;;
39426;SDS011;25938;48.470;1.486;2023-05-07T08:59:12;0.75;;;0.30;;
39426;SDS011;25938;48.470;1.486;2023-05-07T09:01:38;0.98;;;0.30;;
39426;SDS011;25938;48.470;1.486;2023-05-07T09:04:04;1.30;;;0.70;;
39426;SDS011;25938;48.470;1.486;2023-05-07T09:06:32;0.30;;;0.30;;
39426;SDS011;25938;48.470;1.486;2023-05-07T09:08:58;0.40;;;0.30;;
39426;SDS011;25938;48.470;1.486;2023-05-07T09:11:26;0.60;;;0.40;;
39426;SDS011;25938;48.470;1.486;2023-05-07T09:13:55;0.25;;;0.25;;
39426;SDS011;25938;48.470;1.486;2023-05-07T09:16:23;0.80;;;0.20;;
39426;SDS011;25938;48.470;1.486;2023-05-07T09:18:52;0.50;;;0.35;;
39426;SDS011;25938;48.470;1.486;2023-05-07T09:21:19;0.20;;;0.20;;
39426;SDS011;25938;48.470;1.486;2023-05-07T09:23:47;0.63;;;0.20;;
39426;SDS011;25938;48.470;1.486;2023-05-07T09:26:13;0.47;;;0.30;;
39426;SDS011;25938;48.470;1.486;2023-05-07T09:28:44;1.20;;;0.10;;
39426;SDS011;25938;48.470;1.486;2023-05-07T09:31:11;0.93;;;0.77;;
39426;SDS011;25938;48.470;1.486;2023-05-07T09:33:38;1.10;;;0.28;;
39426;SDS011;25938;48.470;1.486;2023-05-07T09:36:04;1.08;;;0.30;;
39426;SDS011;25938;48.470;1.486;2023-05-07T09:38:31;0.30;;;0.22;;
39426;SDS011;25938;48.470;1.486;2023-05-07T09:41:01;0.80;;;0.15;;
39426;SDS011;25938;48.470;1.486;2023-05-07T09:43:31;0.80;;;0.30;;
39426;SDS011;25938;48.470;1.486;2023-05-07T09:45:58;0.70;;;0.20;;
39426;SDS011;25938;48.470;1.486;2023-05-07T09:48:25;0.98;;;0.20;;
39426;SDS011;25938;48.470;1.486;2023-05-07T09:50:51;0.32;;;0.28;;
39426;SDS011;25938;48.470;1.486;2023-05-07T09:53:17;0.98;;;0.68;;
39426;SDS011;25938;48.470;1.486;2023-05-07T09:55:44;0.82;;;0.60;;
39426;SDS011;25938;48.470;1.486;2023-05-07T09:58:11;2.47;;;0.80;;
39426;SDS011;25938;48.470;1.486;2023-05-07T10:00:38;0.82;;;0.80;;
39426;SDS011;25938;48.470;1.486;2023-05-07T10:03:05;1.58;;;0.90;;
39426;SDS011;25938;48.470;1.486;2023-05-07T10:05:32;1.60;;;1.50;;
39426;SDS011;25938;48.470;1.486;2023-05-07T10:07:58;2.17;;;1.08;;
39426;SDS011;25938;48.470;1.486;2023-05-07T10:10:25;3.08;;;1.85;;
39426;SDS011;25938;48.470;1.486;2023-05-07T10:12:51;3.35;;;2.55;;
39426;SDS011;25938;48.470;1.486;2023-05-07T10:15:18;2.03;;;1.13;;
39426;SDS011;25938;48.470;1.486;2023-05-07T10:17:44;3.05;;;2.13;;
39426;SDS011;25938;48.470;1.486;2023-05-07T10:20:10;4.93;;;2.75;;
39426;SDS011;25938;48.470;1.486;2023-05-07T10:22:43;3.67;;;2.42;;
39426;SDS011;25938;48.470;1.486;2023-05-07T10:25:14;2.28;;;1.52;;
39426;SDS011;25938;48.470;1.486;2023-05-07T10:27:42;2.70;;;1.88;;
39426;SDS011;25938;48.470;1.486;2023-05-07T10:32:37;4.00;;;2.90;;
39426;SDS011;25938;48.470;1.486;2023-05-07T10:35:04;2.10;;;1.95;;
39426;SDS011;25938;48.470;1.486;2023-05-07T10:37:31;1.27;;;1.13;;
39426;SDS011;25938;48.470;1.486;2023-05-07T10:39:58;2.45;;;1.27;;
39426;SDS011;25938;48.470;1.486;2023-05-07T10:42:24;2.35;;;1.17;;
39426;SDS011;25938;48.470;1.486;2023-05-07T10:44:50;3.60;;;1.80;;
39426;SDS011;25938;48.470;1.486;2023-05-07T10:47:16;3.95;;;1.70;;
39426;SDS011;25938;48.470;1.486;2023-05-07T10:52:13;4.05;;;2.92;;
39426;SDS011;25938;48.470;1.486;2023-05-07T10:54:41;3.47;;;2.50;;
39426;SDS011;25938;48.470;1.486;2023-05-07T10:59:52;1.40;;;1.30;;
39426;SDS011;25938;48.470;1.486;2023-05-07T11:02:18;1.27;;;0.90;;
39426;SDS011;25938;48.470;1.486;2023-05-07T11:04:44;3.83;;;1.88;;
39426;SDS011;25938;48.470;1.486;2023-05-07T11:15:12;2.22;;;2.03;;
39426;SDS011;25938;48.470;1.486;2023-05-07T11:17:56;5.43;;;3.28;;
39426;SDS011;25938;48.470;1.486;2023-05-07T11:23:10;2.22;;;1.60;;
39426;SDS011;25938;48.470;1.486;2023-05-07T11:26:13;3.88;;;1.27;;
39426;SDS011;25938;48.470;1.486;2023-05-07T11:28:40;5.68;;;1.42;;
39426;SDS011;25938;48.470;1.486;2023-05-07T11:31:07;2.63;;;1.00;;
39426;SDS011;25938;48.470;1.486;2023-05-07T11:33:33;1.67;;;1.45;;
39426;SDS011;25938;48.470;1.486;2023-05-07T11:36:00;3.75;;;1.67;;
39426;SDS011;25938;48.470;1.486;2023-05-07T11:38:26;2.15;;;1.20;;
39426;SDS011;25938;48.470;1.486;2023-05-07T11:40:52;2.78;;;1.48;;
39426;SDS011;25938;48.470;1.486;2023-05-07T11:43:19;2.60;;;1.35;;
39426;SDS011;25938;48.470;1.486;2023-05-07T11:45:45;1.75;;;1.23;;
39426;SDS011;25938;48.470;1.486;2023-05-07T11:48:15;1.88;;;1.48;;
39426;SDS011;25938;48.470;1.486;2023-05-07T11:50:54;1.77;;;1.30;;
39426;SDS011;25938;48.470;1.486;2023-05-07T11:53:25;1.40;;;1.10;;
39426;SDS011;25938;48.470;1.486;2023-05-07T11:55:52;2.15;;;1.08;;
39426;SDS011;25938;48.470;1.486;2023-05-07T11:58:22;0.77;;;0.70;;
39426;SDS011;25938;48.470;1.486;2023-05-07T12:00:49;1.20;;;0.52;;
39426;SDS011;25938;48.470;1.486;2023-05-07T12:05:51;1.73;;;0.68;;
39426;SDS011;25938;48.470;1.486;2023-05-07T12:08:18;1.55;;;1.25;;
39426;SDS011;25938;48.470;1.486;2023-05-07T12:10:45;1.98;;;0.55;;
39426;SDS011;25938;48.470;1.486;2023-05-07T12:15:42;0.90;;;0.90;;
39426;SDS011;25938;48.470;1.486;2023-05-07T12:18:08;1.65;;;1.05;;
39426;SDS011;25938;48.470;1.486;2023-05-07T12:20:35;3.00;;;1.10;;
39426;SDS011;25938;48.470;1.486;2023-05-07T12:23:01;1.10;;;0.88;;
39426;SDS011;25938;48.470;1.486;2023-05-07T12:25:29;1.50;;;0.68;;
39426;SDS011;25938;48.470;1.486;2023-05-07T12:27:56;0.65;;;0.50;;
39426;SDS011;25938;48.470;1.486;2023-05-07T12:30:24;2.80;;;0.80;;
39426;SDS011;25938;48.470;1.486;2023-05-07T12:32:53;2.15;;;0.82;;
39426;SDS011;25938;48.470;1.486;2023-05-07T12:35:32;5.55;;;1.27;;
39426;SDS011;25938;48.470;1.486;2023-05-07T12:38:01;1.67;;;0.70;;
39426;SDS011;25938;48.470;1.486;2023-05-07T12:40:41;0.88;;;0.80;;
39426;SDS011;25938;48.470;1.486;2023-05-07T12:43:08;2.45;;;0.90;;
39426;SDS011;25938;48.470;1.486;2023-05-07T12:45:41;1.40;;;0.68;;
39426;SDS011;25938;48.470;1.486;2023-05-07T12:48:09;2.03;;;0.80;;
39426;SDS011;25938;48.470;1.486;2023-05-07T12:50:35;1.02;;;0.80;;
39426;SDS011;25938;48.470;1.486;2023-05-07T12:53:03;1.10;;;1.00;;
39426;SDS011;25938;48.470;1.486;2023-05-07T12:55:31;1.73;;;1.30;;
39426;SDS011;25938;48.470;1.486;2023-05-07T12:57:57;3.13;;;1.55;;
39426;SDS011;25938;48.470;1.486;2023-05-07T13:00:34;2.20;;;1.05;;
39426;SDS011;25938;48.470;1.486;2023-05-07T13:03:00;1.55;;;0.95;;
39426;SDS011;25938;48.470;1.486;2023-05-07T13:05:26;2.35;;;1.65;;
39426;SDS011;25938;48.470;1.486;2023-05-07T13:07:52;3.85;;;1.42;;
39426;SDS011;25938;48.470;1.486;2023-05-07T13:10:19;2.53;;;1.08;;
39426;SDS011;25938;48.470;1.486;2023-05-07T13:12:45;1.13;;;0.80;;
39426;SDS011;25938;48.470;1.486;2023-05-07T13:15:11;1.42;;;0.80;;
39426;SDS011;25938;48.470;1.486;2023-05-07T13:17:37;2.13;;;0.93;;
39426;SDS011;25938;48.470;1.486;2023-05-07T13:20:03;1.05;;;0.95;;
39426;SDS011;25938;48.470;1.486;2023-05-07T13:22:30;1.55;;;0.85;;
39426;SDS011;25938;48.470;1.486;2023-05-07T13:24:56;1.40;;;1.30;;
39426;SDS011;25938;48.470;1.486;2023-05-07T13:27:22;1.23;;;1.13;;
39426;SDS011;25938;48.470;1.486;2023-05-07T13:29:48;0.88;;;0.88;;
39426;SDS011;25938;48.470;1.486;2023-05-07T13:32:14;1.20;;;0.88;;
39426;SDS011;25938;48.470;1.486;2023-05-07T13:34:40;4.70;;;1.00;;
39426;SDS011;25938;48.470;1.486;2023-05-07T13:37:06;0.98;;;0.60;;
39426;SDS011;25938;48.470;1.486;2023-05-07T13:39:32;1.88;;;1.55;;
39426;SDS011;25938;48.470;1.486;2023-05-07T13:41:58;1.77;;;1.30;;
39426;SDS011;25938;48.470;1.486;2023-05-07T13:44:24;1.85;;;1.65;;
39426;SDS011;25938;48.470;1.486;2023-05-07T13:46:51;2.03;;;1.35;;
39426;SDS011;25938;48.470;1.486;2023-05-07T13:49:17;2.70;;;1.50;;
39426;SDS011;25938;48.470;1.486;2023-05-07T13:51:42;1.67;;;1.00;;
39426;SDS011;25938;48.470;1.486;2023-05-07T13:54:08;4.00;;;1.55;;
39426;SDS011;25938;48.470;1.486;2023-05-07T13:56:34;2.05;;;1.40;;
39426;SDS011;25938;48.470;1.486;2023-05-07T13:59:00;2.28;;;1.23;;
39426;SDS011;25938;48.470;1.486;2023-05-07T14:01:27;5.20;;;3.50;;
39426;SDS011;25938;48.470;1.486;2023-05-07T14:03:53;9.70;;;2.65;;
39426;SDS011;25938;48.470;1.486;2023-05-07T14:06:19;13.23;;;3.88;;
39426;SDS011;25938;48.470;1.486;2023-05-07T14:08:45;8.00;;;3.55;;
39426;SDS011;25938;48.470;1.486;2023-05-07T14:11:11;4.85;;;3.55;;
39426;SDS011;25938;48.470;1.486;2023-05-07T14:13:37;7.32;;;4.03;;
39426;SDS011;25938;48.470;1.486;2023-05-07T14:16:03;8.68;;;5.53;;
39426;SDS011;25938;48.470;1.486;2023-05-07T14:18:30;6.25;;;4.47;;
39426;SDS011;25938;48.470;1.486;2023-05-07T14:20:56;4.80;;;3.17;;
39426;SDS011;25938;48.470;1.486;2023-05-07T14:23:22;3.55;;;2.33;;
39426;SDS011;25938;48.470;1.486;2023-05-07T14:25:51;7.22;;;3.47;;
39426;SDS011;25938;48.470;1.486;2023-05-07T14:28:17;4.60;;;2.15;;
39426;SDS011;25938;48.470;1.486;2023-05-07T14:30:43;4.72;;;2.55;;
39426;SDS011;25938;48.470;1.486;2023-05-07T14:33:09;3.05;;;2.75;;
39426;SDS011;25938;48.470;1.486;2023-05-07T14:35:35;2.50;;;1.67;;
39426;SDS011;25938;48.470;1.486;2023-05-07T14:38:01;2.55;;;1.80;;
39426;SDS011;25938;48.470;1.486;2023-05-07T14:40:27;2.33;;;1.52;;
39426;SDS011;25938;48.470;1.486;2023-05-07T14:42:53;5.68;;;1.80;;
39426;SDS011;25938;48.470;1.486;2023-05-07T14:45:22;3.67;;;1.60;;
39426;SDS011;25938;48.470;1.486;2023-05-07T14:47:48;3.47;;;1.65;;
39426;SDS011;25938;48.470;1.486;2023-05-07T14:50:14;1.95;;;1.38;;
39426;SDS011;25938;48.470;1.486;2023-05-07T14:52:40;3.40;;;1.65;;
39426;SDS011;25938;48.470;1.486;2023-05-07T14:55:06;1.60;;;1.27;;
39426;SDS011;25938;48.470;1.486;2023-05-07T14:57:32;3.00;;;1.33;;
39426;SDS011;25938;48.470;1.486;2023-05-07T15:00:00;2.58;;;1.02;;
39426;SDS011;25938;48.470;1.486;2023-05-07T15:02:26;1.52;;;1.20;;
39426;SDS011;25938;48.470;1.486;2023-05-07T15:04:52;1.17;;;1.08;;
39426;SDS011;25938;48.470;1.486;2023-05-07T15:07:18;3.35;;;1.35;;
39426;SDS011;25938;48.470;1.486;2023-05-07T15:09:44;2.17;;;1.05;;
39426;SDS011;25938;48.470;1.486;2023-05-07T15:12:10;3.50;;;1.48;;